Time;durP1;ratioP1;P1;durP2;ratioP2;P2;SDS_P1;SDS_P2;PMS_P1;PMS_P2;Temp;Humidity;BMP_temperature;BMP_pressure;BME280_temperature;BME280_humidity;BME280_pressure;Samples;Min_cycle;Max_cycle;Signal;HPM_P1;HPM_P2
2021/09/11 00:00:48;;;;;;;8.30;7.70;;;23.70;35.60;;;;;;4953301;28;20253;-67
2021/09/11 00:03:14;;;;;;;8.93;8.30;;;23.70;35.60;;;;;;4953356;28;20168;-67
2021/09/11 00:05:40;;;;;;;8.30;7.70;;;23.70;35.60;;;;;;4953477;28;20230;-68
2021/09/11 00:08:05;;;;;;;8.20;7.70;;;23.70;35.60;;;;;;4953241;28;20183;-67
2021/09/11 00:10:32;;;;;;;8.60;8.00;;;23.70;35.60;;;;;;4953091;28;20213;-68
2021/09/11 00:12:58;;;;;;;8.27;7.77;;;23.70;35.70;;;;;;4953408;28;20175;-68
2021/09/11 00:15:25;;;;;;;8.10;7.60;;;23.70;35.60;;;;;;4952233;29;20506;-68
2021/09/11 00:17:51;;;;;;;8.90;8.40;;;23.70;35.70;;;;;;4953394;28;20426;-68
2021/09/11 00:20:17;;;;;;;9.07;8.47;;;23.70;35.70;;;;;;4952958;28;20509;-68
2021/09/11 00:22:43;;;;;;;8.80;8.20;;;23.70;35.70;;;;;;4954574;28;20415;-68
2021/09/11 00:25:09;;;;;;;8.23;7.73;;;23.70;35.70;;;;;;4956770;28;20171;-69
2021/09/11 00:27:35;;;;;;;8.10;7.50;;;23.70;35.70;;;;;;4956877;28;20191;-67
2021/09/11 00:30:00;;;;;;;8.10;7.50;;;23.60;35.60;;;;;;4956640;28;20415;-69
2021/09/11 00:32:26;;;;;;;8.53;7.83;;;23.60;35.70;;;;;;4956685;28;20195;-69
2021/09/11 00:38:13;;;;;;;8.27;7.70;;;23.70;35.70;;;;;;4956615;29;20214;-68
2021/09/11 00:40:39;;;;;;;8.23;7.73;;;23.60;35.80;;;;;;4956351;28;20491;-69
2021/09/11 00:46:26;;;;;;;8.00;7.40;;;23.60;35.80;;;;;;4956713;29;20242;-67
2021/09/11 00:48:51;;;;;;;7.93;7.43;;;23.60;35.70;;;;;;4956073;28;20443;-68
2021/09/11 00:51:17;;;;;;;8.93;8.37;;;23.60;35.80;;;;;;4956126;28;20202;-68
2021/09/11 00:53:43;;;;;;;8.63;8.00;;;23.60;35.90;;;;;;4956061;28;20176;-68
2021/09/11 00:56:09;;;;;;;8.80;8.17;;;23.60;35.90;;;;;;4956314;28;20176;-68
2021/09/11 00:58:35;;;;;;;8.67;8.07;;;23.60;36.00;;;;;;4955833;28;20183;-68
2021/09/11 01:01:00;;;;;;;8.70;8.10;;;23.60;36.10;;;;;;4955962;28;20567;-68
2021/09/11 01:03:26;;;;;;;8.67;8.07;;;23.60;36.10;;;;;;4956076;28;20418;-68
2021/09/11 01:05:51;;;;;;;8.70;8.20;;;23.60;36.10;;;;;;4956079;28;20174;-68
2021/09/11 01:08:17;;;;;;;9.73;9.07;;;23.60;36.20;;;;;;4955953;28;20179;-68
2021/09/11 01:10:43;;;;;;;8.27;7.70;;;23.60;36.30;;;;;;4955837;28;20568;-67
2021/09/11 01:13:09;;;;;;;9.07;8.40;;;23.60;36.30;;;;;;4955716;28;20422;-67
2021/09/11 01:15:38;;;;;;;8.80;8.20;;;23.60;36.40;;;;;;4956349;28;20621;-67
2021/09/11 01:18:04;;;;;;;8.80;8.20;;;23.60;36.40;;;;;;4955751;28;20410;-67
2021/09/11 01:20:30;;;;;;;8.93;8.27;;;23.60;36.40;;;;;;4955466;28;20462;-68
2021/09/11 01:22:56;;;;;;;8.43;7.70;;;23.60;36.30;;;;;;4955697;28;20417;-67
2021/09/11 01:25:21;;;;;;;8.70;8.10;;;23.60;36.20;;;;;;4955673;28;20673;-68
2021/09/11 01:27:47;;;;;;;8.40;7.80;;;23.60;36.50;;;;;;4955544;28;20411;-68
2021/09/11 01:30:15;;;;;;;8.70;8.00;;;23.60;36.20;;;;;;4955341;28;20178;-68
2021/09/11 01:32:42;;;;;;;9.27;8.37;;;23.60;36.20;;;;;;4955493;28;20235;-68
2021/09/11 01:35:09;;;;;;;9.07;8.37;;;23.60;36.20;;;;;;4954828;28;20411;-68
2021/09/11 01:37:34;;;;;;;9.00;8.40;;;23.60;36.20;;;;;;4955423;28;20437;-68
2021/09/11 01:40:00;;;;;;;7.63;7.10;;;23.60;36.20;;;;;;4955495;28;20458;-68
2021/09/11 01:42:27;;;;;;;8.40;7.90;;;23.60;36.20;;;;;;4955199;28;20250;-67
2021/09/11 01:45:04;;;;;;;8.10;7.50;;;23.60;36.30;;;;;;4955403;28;20179;-68
2021/09/11 01:47:30;;;;;;;8.63;7.93;;;23.60;36.20;;;;;;4955259;28;20470;-68
2021/09/11 01:49:55;;;;;;;8.00;7.40;;;23.60;36.40;;;;;;4954947;28;20415;-68
2021/09/11 01:52:21;;;;;;;7.83;7.33;;;23.60;36.40;;;;;;4955150;28;20219;-68
2021/09/11 01:54:47;;;;;;;7.63;7.13;;;23.60;36.50;;;;;;4955041;28;20270;-68
2021/09/11 01:57:13;;;;;;;7.90;7.40;;;23.50;36.40;;;;;;4955113;28;20474;-68
2021/09/11 01:59:40;;;;;;;8.63;8.03;;;23.50;36.50;;;;;;4954801;28;20267;-67
2021/09/11 02:02:07;;;;;;;7.83;7.33;;;23.50;36.50;;;;;;4955180;28;21012;-68
2021/09/11 02:04:34;;;;;;;8.63;8.03;;;23.60;36.60;;;;;;4954905;28;20403;-67
2021/09/11 02:07:02;;;;;;;7.97;7.47;;;23.50;36.50;;;;;;4954950;28;20407;-68
2021/09/11 02:09:27;;;;;;;8.17;7.67;;;23.50;36.50;;;;;;4954626;28;20411;-68
2021/09/11 02:11:53;;;;;;;8.03;7.53;;;23.50;36.50;;;;;;4954929;28;20446;-68
2021/09/11 02:14:18;;;;;;;8.00;7.50;;;23.50;36.60;;;;;;4954796;28;20549;-68
2021/09/11 02:16:44;;;;;;;7.73;7.23;;;23.60;36.70;;;;;;4954775;28;20254;-67
2021/09/11 02:19:09;;;;;;;7.83;7.33;;;23.50;36.60;;;;;;4954398;28;20172;-68
2021/09/11 02:21:35;;;;;;;7.47;6.87;;;23.50;36.60;;;;;;4954528;28;20640;-68
2021/09/11 02:24:00;;;;;;;8.93;8.33;;;23.50;36.60;;;;;;4954410;28;20175;-68
2021/09/11 02:26:26;;;;;;;7.83;7.33;;;23.50;36.70;;;;;;4954698;28;20200;-68
2021/09/11 02:28:52;;;;;;;8.40;7.90;;;23.50;36.60;;;;;;4954331;28;20554;-67
2021/09/11 02:31:18;;;;;;;8.40;7.77;;;23.50;36.60;;;;;;4954532;28;20254;-68
2021/09/11 02:33:44;;;;;;;8.27;7.73;;;23.50;36.60;;;;;;4954354;28;20175;-68
2021/09/11 02:36:10;;;;;;;7.90;7.40;;;23.50;36.60;;;;;;4954414;28;20814;-69
2021/09/11 02:38:36;;;;;;;8.00;7.40;;;23.50;36.70;;;;;;4954108;28;20485;-68
2021/09/11 02:41:01;;;;;;;7.20;6.70;;;23.50;37.40;;;;;;4954473;28;20702;-69
2021/09/11 02:43:27;;;;;;;7.70;7.20;;;23.50;36.70;;;;;;4954333;28;20673;-68
2021/09/11 02:45:52;;;;;;;7.77;7.27;;;23.50;36.70;;;;;;4953416;28;20169;-69
2021/09/11 02:48:18;;;;;;;7.33;6.90;;;23.50;36.70;;;;;;4954228;28;20210;-68
2021/09/11 02:50:43;;;;;;;8.03;7.53;;;23.50;36.70;;;;;;4954059;28;20291;-68
2021/09/11 02:53:09;;;;;;;8.43;7.83;;;23.50;36.70;;;;;;4954156;28;20245;-68
2021/09/11 02:55:35;;;;;;;7.50;7.00;;;23.50;36.70;;;;;;4954109;28;20543;-68
2021/09/11 02:58:00;;;;;;;7.27;6.77;;;23.50;36.70;;;;;;4954150;28;20183;-69
2021/09/11 03:00:26;;;;;;;8.10;7.50;;;23.50;36.70;;;;;;4953538;28;20245;-68
2021/09/11 03:02:51;;;;;;;8.40;7.80;;;23.50;36.80;;;;;;4954141;28;20179;-68
2021/09/11 03:05:17;;;;;;;8.23;7.53;;;23.50;36.80;;;;;;4953965;28;20629;-69
2021/09/11 03:07:42;;;;;;;7.20;6.73;;;23.50;36.80;;;;;;4953966;28;20654;-69
2021/09/11 03:10:08;;;;;;;7.93;7.33;;;23.50;36.80;;;;;;4953651;28;20550;-69
2021/09/11 03:12:34;;;;;;;6.93;6.50;;;23.50;36.80;;;;;;4953959;28;20179;-68
2021/09/11 03:14:59;;;;;;;8.50;7.90;;;23.50;36.90;;;;;;4953831;28;20422;-68
2021/09/11 03:17:25;;;;;;;7.67;7.20;;;23.40;36.80;;;;;;4953870;28;20187;-69
2021/09/11 03:19:50;;;;;;;7.37;6.87;;;23.40;36.90;;;;;;4953362;28;20180;-69
2021/09/11 03:22:16;;;;;;;7.53;7.03;;;23.40;36.80;;;;;;4953484;28;20572;-69
2021/09/11 03:24:41;;;;;;;7.13;6.63;;;23.40;36.80;;;;;;4952143;28;20175;-68
2021/09/11 03:27:07;;;;;;;8.00;7.40;;;23.40;36.90;;;;;;4946054;28;20183;-68
2021/09/11 03:29:33;;;;;;;8.00;7.50;;;23.40;36.90;;;;;;4951788;29;20182;-68
2021/09/11 03:31:58;;;;;;;7.37;6.77;;;23.40;36.80;;;;;;4951883;29;20199;-69
2021/09/11 03:34:24;;;;;;;7.53;7.00;;;23.40;36.90;;;;;;4952198;29;20191;-68
2021/09/11 03:36:49;;;;;;;7.10;6.60;;;23.40;36.90;;;;;;4951916;28;20226;-68
2021/09/11 03:39:15;;;;;;;7.87;7.20;;;23.40;37.00;;;;;;4951651;29;20234;-68
2021/09/11 03:41:40;;;;;;;7.77;7.27;;;23.40;36.90;;;;;;4953442;29;20218;-67
2021/09/11 03:44:06;;;;;;;7.70;7.10;;;23.40;37.00;;;;;;4953538;29;20543;-68
2021/09/11 03:46:31;;;;;;;7.43;6.93;;;23.40;37.00;;;;;;4953542;29;20187;-68
2021/09/11 03:48:57;;;;;;;8.50;8.00;;;23.40;37.00;;;;;;4953396;29;20168;-68
2021/09/11 03:51:23;;;;;;;6.83;6.40;;;23.40;37.00;;;;;;4953270;29;20638;-68
2021/09/11 03:53:48;;;;;;;7.83;7.33;;;23.40;37.10;;;;;;4953580;29;20239;-68
2021/09/11 03:56:15;;;;;;;8.27;7.57;;;23.40;37.10;;;;;;4953436;29;20650;-68
2021/09/11 03:58:40;;;;;;;6.67;6.27;;;23.40;37.00;;;;;;4956370;28;20586;-68
2021/09/11 04:01:06;;;;;;;7.23;6.83;;;23.40;37.10;;;;;;4956820;29;20470;-68
2021/09/11 04:03:32;;;;;;;7.37;6.77;;;23.40;37.10;;;;;;4957134;29;20194;-69
2021/09/11 04:05:58;;;;;;;7.50;6.90;;;23.40;37.10;;;;;;4957436;28;20207;-68
2021/09/11 04:08:24;;;;;;;7.87;7.37;;;23.40;37.10;;;;;;4956957;28;20426;-68
2021/09/11 04:10:51;;;;;;;6.57;6.17;;;23.40;37.10;;;;;;4956971;29;20435;-68
2021/09/11 04:13:16;;;;;;;6.73;6.30;;;23.40;37.10;;;;;;4957138;29;20422;-69
2021/09/11 04:15:42;;;;;;;6.63;6.23;;;23.40;37.10;;;;;;4956884;29;20427;-69
2021/09/11 04:18:07;;;;;;;6.47;6.07;;;23.40;37.10;;;;;;4956901;29;20198;-68
2021/09/11 04:20:33;;;;;;;6.33;5.87;;;23.40;37.10;;;;;;4956438;29;20315;-69
2021/09/11 04:22:58;;;;;;;6.90;6.40;;;23.40;37.10;;;;;;4956893;29;20515;-69
2021/09/11 04:25:24;;;;;;;7.27;6.77;;;23.40;37.10;;;;;;4956692;29;20191;-69
2021/09/11 04:27:49;;;;;;;7.30;6.80;;;23.40;37.20;;;;;;4956840;29;20176;-69
2021/09/11 04:30:15;;;;;;;6.63;6.23;;;23.40;37.20;;;;;;4956393;29;20606;-69
2021/09/11 04:32:40;;;;;;;7.00;6.60;;;23.40;37.20;;;;;;4956656;29;20180;-69
2021/09/11 04:35:06;;;;;;;7.27;6.73;;;23.40;37.20;;;;;;4956642;28;20258;-69
2021/09/11 04:37:32;;;;;;;6.33;5.93;;;23.40;37.20;;;;;;4956447;28;20171;-69
2021/09/11 04:39:59;;;;;;;7.00;6.50;;;23.40;37.20;;;;;;4952271;28;20812;-66
2021/09/11 04:42:24;;;;;;;6.63;6.23;;;23.40;37.20;;;;;;4955742;29;20187;-72
2021/09/11 04:44:50;;;;;;;7.33;6.40;;;23.40;37.20;;;;;;4956213;29;20916;-74
2021/09/11 04:47:16;;;;;;;6.53;6.03;;;23.40;37.30;;;;;;4944380;28;20226;-73
2021/09/11 04:49:41;;;;;;;6.70;6.20;;;23.40;38.00;;;;;;4943662;28;20227;-70
2021/09/11 04:52:07;;;;;;;7.33;6.83;;;23.30;37.30;;;;;;4944085;28;20529;-70
2021/09/11 04:54:33;;;;;;;6.97;6.47;;;23.40;37.40;;;;;;4944496;28;20227;-69
2021/09/11 04:56:58;;;;;;;6.43;5.93;;;23.40;37.40;;;;;;4945719;28;20230;-71
2021/09/11 04:59:25;;;;;;;6.70;6.30;;;23.40;37.40;;;;;;4944676;28;20262;-69
2021/09/11 05:01:51;;;;;;;5.97;5.57;;;23.40;37.50;;;;;;4944391;28;20238;-71
2021/09/11 05:04:17;;;;;;;5.80;5.40;;;23.30;37.30;;;;;;4943943;28;20455;-69
2021/09/11 05:06:42;;;;;;;5.37;4.97;;;23.30;37.40;;;;;;4943850;28;20314;-69
2021/09/11 05:09:08;;;;;;;5.47;5.03;;;23.40;37.40;;;;;;4942979;28;20274;-69
2021/09/11 05:11:33;;;;;;;5.77;5.43;;;23.40;37.40;;;;;;4944052;28;20238;-69
2021/09/11 05:13:59;;;;;;;6.00;5.63;;;23.30;37.30;;;;;;4944142;28;20733;-70
2021/09/11 05:16:24;;;;;;;6.03;5.63;;;23.30;37.40;;;;;;4944291;28;20233;-70
2021/09/11 05:18:50;;;;;;;5.73;5.20;;;23.30;37.40;;;;;;4943113;28;20222;-69
2021/09/11 05:21:15;;;;;;;6.50;6.10;;;23.30;37.40;;;;;;4944676;28;20223;-67
2021/09/11 05:23:41;;;;;;;6.73;6.33;;;23.30;37.50;;;;;;4944358;28;20279;-68
2021/09/11 05:26:06;;;;;;;6.20;5.70;;;23.40;37.60;;;;;;4943765;28;20227;-68
2021/09/11 05:28:32;;;;;;;6.47;5.97;;;23.30;38.30;;;;;;4931478;28;20350;-67
2021/09/11 05:30:58;;;;;;;6.33;5.83;;;23.30;37.70;;;;;;4924267;28;20719;-68
2021/09/11 05:33:24;;;;;;;9.47;6.20;;;23.30;37.80;;;;;;4924571;28;20470;-67
2021/09/11 05:35:49;;;;;;;5.70;5.30;;;23.30;37.90;;;;;;4925732;28;20227;-67
2021/09/11 05:38:15;;;;;;;6.60;6.10;;;23.30;38.80;;;;;;4924917;28;20621;-68
2021/09/11 05:40:41;;;;;;;7.97;5.30;;;23.40;38.10;;;;;;4923432;28;20288;-68
2021/09/11 05:43:06;;;;;;;6.10;5.57;;;23.30;38.10;;;;;;4927738;28;20514;-66
2021/09/11 05:45:32;;;;;;;7.63;5.63;;;23.30;38.20;;;;;;4922945;28;20238;-63
2021/09/11 05:47:57;;;;;;;5.93;5.37;;;23.30;38.20;;;;;;4927728;29;20191;-63
2021/09/11 05:50:23;;;;;;;6.00;5.40;;;23.30;38.40;;;;;;4930871;28;20803;-63
2021/09/11 05:52:48;;;;;;;6.10;5.17;;;23.30;38.60;;;;;;4939839;28;20600;-64
2021/09/11 05:55:15;;;;;;;4.80;4.50;;;23.30;38.60;;;;;;4941721;28;20546;-61
2021/09/11 05:57:41;;;;;;;5.33;5.03;;;23.30;38.70;;;;;;4940754;28;20693;-64
2021/09/11 06:00:07;;;;;;;5.53;5.13;;;23.30;38.80;;;;;;4940984;28;20553;-63
2021/09/11 06:02:33;;;;;;;5.10;4.80;;;23.30;38.80;;;;;;4941633;28;20245;-63
2021/09/11 06:04:58;;;;;;;4.17;3.87;;;23.30;39.60;;;;;;4937934;28;20438;-61
2021/09/11 06:07:24;;;;;;;4.33;4.03;;;23.30;39.10;;;;;;4943504;28;20250;-63
2021/09/11 06:09:49;;;;;;;5.20;4.80;;;23.30;39.20;;;;;;4941558;28;20247;-64
2021/09/11 06:12:15;;;;;;;5.00;4.70;;;23.20;39.10;;;;;;4945160;28;20223;-62
2021/09/11 06:14:41;;;;;;;5.47;5.07;;;23.20;39.20;;;;;;4945206;28;20227;-63
2021/09/11 06:17:09;;;;;;;4.87;4.57;;;23.20;39.10;;;;;;4942730;28;20234;-62
2021/09/11 06:19:36;;;;;;;4.03;3.83;;;23.20;39.20;;;;;;4943008;28;20438;-62
2021/09/11 06:22:02;;;;;;;4.77;4.47;;;23.20;39.30;;;;;;4944501;28;20466;-63
2021/09/11 06:24:28;;;;;;;4.93;4.53;;;23.10;39.40;;;;;;4943315;28;20463;-65
2021/09/11 06:26:53;;;;;;;4.83;4.53;;;23.10;39.30;;;;;;4943027;28;20463;-64
2021/09/11 06:29:20;;;;;;;4.80;4.50;;;23.10;39.30;;;;;;4940569;28;20301;-62
2021/09/11 06:31:45;;;;;;;5.07;4.67;;;23.10;39.30;;;;;;4939407;28;20273;-64
2021/09/11 06:34:11;;;;;;;4.60;4.30;;;23.10;39.30;;;;;;4946169;29;20920;-63
2021/09/11 06:36:36;;;;;;;4.37;3.97;;;23.10;39.30;;;;;;4943509;28;20732;-64
2021/09/11 06:39:02;;;;;;;4.90;4.50;;;23.10;39.30;;;;;;4941811;28;20289;-64
2021/09/11 06:41:27;;;;;;;4.60;4.20;;;23.10;39.20;;;;;;4943647;28;20227;-65
2021/09/11 06:43:53;;;;;;;4.77;4.37;;;23.10;39.40;;;;;;4945273;29;20428;-64
2021/09/11 06:46:18;;;;;;;4.00;3.70;;;23.10;39.40;;;;;;4940833;28;20231;-62
2021/09/11 06:48:44;;;;;;;4.40;4.10;;;23.10;39.40;;;;;;4942804;28;20266;-63
2021/09/11 06:51:13;;;;;;;4.17;3.87;;;23.10;39.40;;;;;;4939898;28;20258;-64
2021/09/11 06:53:39;;;;;;;4.47;4.17;;;23.10;39.40;;;;;;4939377;28;20828;-64
2021/09/11 06:56:05;;;;;;;4.47;4.07;;;23.10;40.00;;;;;;4941844;28;20483;-63
2021/09/11 06:58:30;;;;;;;4.93;4.63;;;23.10;39.30;;;;;;4943504;28;20230;-65
2021/09/11 07:00:56;;;;;;;4.20;3.90;;;23.10;39.30;;;;;;4938906;28;20467;-63
2021/09/11 07:03:22;;;;;;;4.03;3.73;;;23.10;39.30;;;;;;4938822;28;20761;-64
2021/09/11 07:05:48;;;;;;;4.27;3.97;;;23.10;39.40;;;;;;4939407;28;20235;-63
2021/09/11 07:08:14;;;;;;;4.87;4.47;;;23.10;39.50;;;;;;4938787;28;20446;-63
2021/09/11 07:10:42;;;;;;;4.10;3.80;;;23.10;39.40;;;;;;4939493;28;20235;-64
2021/09/11 07:13:08;;;;;;;4.30;4.00;;;23.10;39.40;;;;;;4939195;28;20246;-64
2021/09/11 07:15:33;;;;;;;4.07;3.80;;;23.10;39.50;;;;;;4938897;28;20479;-64
2021/09/11 07:17:59;;;;;;;3.67;3.47;;;23.10;39.50;;;;;;4940968;28;20245;-64
2021/09/11 07:20:25;;;;;;;3.67;3.47;;;23.10;39.50;;;;;;4942608;28;20371;-63
2021/09/11 07:22:50;;;;;;;3.70;3.50;;;23.10;39.50;;;;;;4943380;28;20225;-64
2021/09/11 07:25:17;;;;;;;4.27;3.97;;;23.10;39.50;;;;;;4939680;28;21142;-64
2021/09/11 07:27:42;;;;;;;3.50;3.30;;;23.10;39.50;;;;;;4943229;28;20223;-64
2021/09/11 07:30:08;;;;;;;3.80;3.50;;;23.10;39.50;;;;;;4940953;28;21062;-63
2021/09/11 07:32:34;;;;;;;3.60;3.30;;;23.10;39.60;;;;;;4941057;28;20261;-61
2021/09/11 07:34:59;;;;;;;3.27;3.07;;;23.10;39.70;;;;;;4947339;28;20789;-63
2021/09/11 07:37:25;;;;;;;3.40;3.20;;;23.10;39.70;;;;;;4946430;28;20234;-61
2021/09/11 07:39:50;;;;;;;2.97;2.87;;;23.10;39.80;;;;;;4950207;28;20210;-63
2021/09/11 07:42:17;;;;;;;5.90;3.50;;;23.10;40.00;;;;;;4947380;28;20227;-63
2021/09/11 07:44:42;;;;;;;3.60;3.40;;;23.10;40.00;;;;;;4947632;28;20265;-62
2021/09/11 07:47:08;;;;;;;3.50;3.30;;;23.10;40.00;;;;;;4945638;28;20439;-63
2021/09/11 07:49:34;;;;;;;4.20;3.83;;;23.10;40.00;;;;;;4945096;28;20696;-65
2021/09/11 07:51:59;;;;;;;3.07;2.90;;;23.10;40.00;;;;;;4945999;28;20450;-62
2021/09/11 07:54:25;;;;;;;4.30;2.80;;;23.10;40.00;;;;;;4946749;28;20485;-66
2021/09/11 07:56:51;;;;;;;3.60;3.40;;;23.00;39.80;;;;;;4945819;28;20237;-66
2021/09/11 07:59:16;;;;;;;3.77;3.50;;;23.10;40.10;;;;;;4945953;28;20227;-67
2021/09/11 08:01:42;;;;;;;3.70;3.40;;;23.10;39.90;;;;;;4945312;28;20235;-67
2021/09/11 08:04:07;;;;;;;3.50;3.30;;;23.10;39.90;;;;;;4946410;28;20222;-69
2021/09/11 08:06:33;;;;;;;3.70;3.33;;;23.10;39.80;;;;;;4947323;28;20227;-66
2021/09/11 08:08:58;;;;;;;3.80;3.50;;;23.10;39.60;;;;;;4945168;28;20233;-66
2021/09/11 08:11:24;;;;;;;4.23;3.60;;;23.10;39.70;;;;;;4946971;28;20262;-66
2021/09/11 08:13:49;;;;;;;3.23;2.93;;;23.20;39.70;;;;;;4946608;28;20322;-67
2021/09/11 08:16:15;;;;;;;3.80;3.53;;;23.20;39.40;;;;;;4945340;28;20286;-66
2021/09/11 08:18:40;;;;;;;4.33;3.60;;;23.20;39.30;;;;;;4942599;28;20227;-64
2021/09/11 08:21:06;;;;;;;3.53;3.20;;;23.20;39.20;;;;;;4944999;28;20235;-66
2021/09/11 08:23:32;;;;;;;3.30;3.00;;;23.30;39.20;;;;;;4945110;28;20235;-67
2021/09/11 08:25:57;;;;;;;4.20;3.77;;;23.30;39.30;;;;;;4946904;28;20724;-67
2021/09/11 08:28:23;;;;;;;3.27;3.07;;;23.30;39.20;;;;;;4946759;28;20227;-65
2021/09/11 08:30:48;;;;;;;3.37;3.03;;;23.30;39.00;;;;;;4944464;28;20231;-65
2021/09/11 08:33:15;;;;;;;6.00;4.30;;;23.30;39.00;;;;;;4944636;28;20241;-66
2021/09/11 08:35:42;;;;;;;8.70;4.50;;;23.30;39.10;;;;;;4946802;28;20423;-66
2021/09/11 08:38:08;;;;;;;11.30;5.77;;;23.30;39.10;;;;;;4945002;28;20477;-66
2021/09/11 08:40:34;;;;;;;9.50;5.90;;;23.40;39.20;;;;;;4945477;28;20462;-66
2021/09/11 08:43:01;;;;;;;6.33;4.87;;;23.30;39.00;;;;;;4940008;28;21229;-67
2021/09/11 08:45:27;;;;;;;10.57;5.37;;;23.40;39.10;;;;;;4941124;28;20533;-64
2021/09/11 08:47:53;;;;;;;9.20;6.00;;;23.40;39.10;;;;;;4946434;28;20454;-65
2021/09/11 08:50:20;;;;;;;7.77;5.60;;;23.40;39.00;;;;;;4945678;28;20454;-66
2021/09/11 08:52:48;;;;;;;6.90;5.43;;;23.40;39.00;;;;;;4946853;28;20231;-66
2021/09/11 08:55:16;;;;;;;6.37;5.40;;;23.40;38.90;;;;;;4946216;28;20447;-66
2021/09/11 08:57:56;;;;;;;7.30;6.70;;;23.40;39.00;;;;;;4946502;28;20466;-65
2021/09/11 09:00:39;;;;;;;7.30;5.87;;;23.40;39.00;;;;;;4941699;28;20506;-65
2021/09/11 09:03:30;;;;;;;8.50;5.77;;;23.40;39.10;;;;;;4944006;28;20995;-67
2021/09/11 09:06:23;;;;;;;9.43;5.60;;;23.40;39.20;;;;;;4944898;28;20449;-65
2021/09/11 09:09:11;;;;;;;6.73;5.30;;;23.40;39.10;;;;;;4944385;28;20451;-67
2021/09/11 09:11:44;;;;;;;8.33;5.90;;;23.40;39.00;;;;;;4944523;28;20451;-67
2021/09/11 09:14:17;;;;;;;6.23;5.00;;;23.40;38.80;;;;;;4946181;28;20449;-66
2021/09/11 09:16:52;;;;;;;4.57;4.17;;;23.40;38.80;;;;;;4948080;28;20768;-66
2021/09/11 09:19:21;;;;;;;4.63;4.17;;;23.40;38.80;;;;;;4943505;28;20445;-67
2021/09/11 09:21:50;;;;;;;5.53;4.73;;;23.40;38.70;;;;;;4943864;28;20465;-65
2021/09/11 09:24:36;;;;;;;5.07;4.50;;;23.50;38.80;;;;;;4951028;28;20450;-66
2021/09/11 09:27:04;;;;;;;5.30;4.73;;;23.40;38.90;;;;;;4944008;28;20474;-66
2021/09/11 09:29:33;;;;;;;4.70;4.00;;;23.50;38.90;;;;;;4943962;28;20449;-68
2021/09/11 09:32:00;;;;;;;4.30;3.90;;;23.40;38.80;;;;;;4945554;28;20969;-66
2021/09/11 09:34:36;;;;;;;4.27;3.97;;;23.40;38.70;;;;;;4946305;28;20782;-65
2021/09/11 09:37:04;;;;;;;3.63;3.40;;;23.40;38.70;;;;;;4943486;28;20504;-65
2021/09/11 09:39:29;;;;;;;4.03;3.73;;;23.40;38.60;;;;;;4946095;28;20431;-66
2021/09/11 09:42:03;;;;;;;4.20;3.70;;;23.40;38.60;;;;;;4946808;28;20533;-65
2021/09/11 09:44:41;;;;;;;4.20;3.80;;;23.50;38.70;;;;;;4945199;28;20227;-66
2021/09/11 09:47:14;;;;;;;5.07;3.90;;;23.50;38.70;;;;;;4943741;28;20930;-66
2021/09/11 09:49:40;;;;;;;3.80;3.50;;;23.50;38.70;;;;;;4943835;28;20951;-65
2021/09/11 09:52:06;;;;;;;3.90;3.70;;;23.50;38.70;;;;;;4943254;28;20589;-66
2021/09/11 09:54:32;;;;;;;3.67;3.47;;;23.50;38.70;;;;;;4944530;28;20550;-65
2021/09/11 09:56:58;;;;;;;3.90;3.60;;;23.50;38.70;;;;;;4945450;28;20235;-65
2021/09/11 09:59:25;;;;;;;3.97;3.70;;;23.50;38.80;;;;;;4927007;28;20526;-66
2021/09/11 10:01:50;;;;;;;4.83;4.43;;;23.50;38.80;;;;;;4925014;28;20267;-65
2021/09/11 10:04:18;;;;;;;3.50;3.30;;;23.50;38.90;;;;;;4926278;28;20538;-66
2021/09/11 10:06:55;;;;;;;5.30;3.60;;;23.50;38.90;;;;;;4924443;28;20227;-65
2021/09/11 10:09:24;;;;;;;3.90;3.60;;;23.50;39.00;;;;;;4925426;28;20541;-66
2021/09/11 10:11:50;;;;;;;3.47;3.20;;;23.50;38.90;;;;;;4924836;28;20459;-64
2021/09/11 10:14:19;;;;;;;10.70;3.93;;;23.50;38.90;;;;;;4927629;28;20834;-66
2021/09/11 10:16:56;;;;;;;4.33;3.87;;;23.50;39.10;;;;;;4927598;28;20424;-66
2021/09/11 10:19:24;;;;;;;3.50;3.30;;;23.50;39.90;;;;;;4927378;28;20887;-64
2021/09/11 10:22:04;;;;;;;3.10;2.90;;;23.50;39.10;;;;;;4927069;28;20473;-63
2021/09/11 10:24:31;;;;;;;3.50;3.20;;;23.50;39.00;;;;;;4931417;29;21013;-65
2021/09/11 10:27:01;;;;;;;4.10;3.70;;;23.50;39.00;;;;;;4916743;28;21058;-67
2021/09/11 10:29:36;;;;;;;3.10;2.90;;;23.50;38.80;;;;;;4908083;28;20524;-63
2021/09/11 10:32:11;;;;;;;3.27;2.97;;;23.50;38.50;;;;;;4912595;28;21018;-68
2021/09/11 10:34:54;;;;;;;3.40;3.10;;;23.60;38.60;;;;;;4907354;28;20531;-69
2021/09/11 10:37:29;;;;;;;4.50;2.90;;;23.60;38.60;;;;;;4907651;28;20424;-68
2021/09/11 10:40:28;;;;;;;4.83;3.60;;;23.60;38.50;;;;;;4902447;28;20456;-68
2021/09/11 10:43:09;;;;;;;3.03;2.83;;;23.60;38.80;;;;;;4899811;28;20451;-66
2021/09/11 10:45:55;;;;;;;3.63;3.43;;;23.60;38.70;;;;;;4905804;28;20445;-67
2021/09/11 10:48:48;;;;;;;3.50;3.20;;;23.60;38.70;;;;;;4922362;28;20444;-67
2021/09/11 10:51:20;;;;;;;3.67;3.47;;;23.50;38.80;;;;;;4921267;28;20535;-67
2021/09/11 10:54:07;;;;;;;2.90;2.70;;;23.60;38.90;;;;;;4921470;28;20991;-67
2021/09/11 10:56:37;;;;;;;3.30;3.10;;;23.60;38.70;;;;;;4923560;28;20454;-69
2021/09/11 10:59:18;;;;;;;3.67;3.37;;;23.60;38.70;;;;;;4922255;28;21033;-69
2021/09/11 11:02:09;;;;;;;3.20;3.03;;;23.60;38.70;;;;;;4922949;28;20495;-68
2021/09/11 11:04:48;;;;;;;3.37;3.07;;;23.60;39.10;;;;;;4924882;28;20479;-68
2021/09/11 11:07:20;;;;;;;3.87;3.40;;;23.60;39.30;;;;;;4920618;28;20456;-67
2021/09/11 11:09:48;;;;;;;3.80;3.40;;;23.60;39.40;;;;;;4923182;28;20839;-67
2021/09/11 11:12:21;;;;;;;3.83;3.53;;;23.60;39.40;;;;;;4920579;28;20456;-67
2021/09/11 11:14:46;;;;;;;4.00;3.70;;;23.60;39.40;;;;;;4919223;28;20476;-67
2021/09/11 11:17:13;;;;;;;3.47;3.27;;;23.60;39.60;;;;;;4916861;28;21396;-67
2021/09/11 11:19:44;;;;;;;3.87;3.50;;;23.70;39.50;;;;;;4917587;28;20262;-67
2021/09/11 11:22:15;;;;;;;4.60;4.27;;;23.60;39.60;;;;;;4917159;28;20463;-67
2021/09/11 11:24:46;;;;;;;4.63;3.63;;;23.60;39.40;;;;;;4917163;28;20463;-67
2021/09/11 11:27:18;;;;;;;4.13;3.83;;;23.60;39.60;;;;;;4917529;28;20547;-67
2021/09/11 11:29:46;;;;;;;4.77;4.40;;;23.60;39.70;;;;;;4916344;28;20853;-67
2021/09/11 11:32:12;;;;;;;8.67;4.63;;;23.60;39.90;;;;;;4918154;28;21352;-68
2021/09/11 11:34:39;;;;;;;3.97;3.60;;;23.60;40.20;;;;;;4916605;28;21038;-68
2021/09/11 11:37:07;;;;;;;7.70;4.50;;;23.60;40.30;;;;;;4917997;28;21018;-67
2021/09/11 11:39:38;;;;;;;4.10;3.67;;;23.60;40.40;;;;;;4916495;28;21017;-67
2021/09/11 11:42:03;;;;;;;4.60;4.20;;;23.60;40.50;;;;;;4917964;28;20515;-67
2021/09/11 11:44:31;;;;;;;6.43;4.90;;;23.70;40.60;;;;;;4916661;28;22007;-67
2021/09/11 11:47:22;;;;;;;4.77;4.23;;;23.70;40.70;;;;;;4917827;28;20227;-68
2021/09/11 11:49:47;;;;;;;6.33;4.00;;;23.60;40.90;;;;;;4916748;28;20526;-68
2021/09/11 11:52:13;;;;;;;3.87;3.67;;;23.70;41.00;;;;;;4917374;28;20896;-68
2021/09/11 11:54:42;;;;;;;5.53;4.83;;;23.70;41.10;;;;;;4916910;28;20226;-67
2021/09/11 11:57:13;;;;;;;5.00;4.70;;;23.70;41.10;;;;;;4917531;28;20457;-67
2021/09/11 11:59:40;;;;;;;4.67;4.30;;;23.70;41.00;;;;;;4916878;28;20455;-67
2021/09/11 12:02:30;;;;;;;5.20;4.70;;;23.70;40.90;;;;;;4916509;28;20475;-68
2021/09/11 12:05:23;;;;;;;3.90;3.60;;;23.70;41.10;;;;;;4932121;28;20467;-68
2021/09/11 12:07:55;;;;;;;4.90;4.50;;;23.70;41.30;;;;;;4903077;28;20464;-68
2021/09/11 12:10:23;;;;;;;4.80;4.40;;;23.70;41.80;;;;;;4897741;28;20804;-68
2021/09/11 12:13:04;;;;;;;4.73;4.30;;;23.80;42.10;;;;;;4898964;28;20543;-68
2021/09/11 12:15:32;;;;;;;4.73;4.43;;;23.70;42.10;;;;;;4898601;28;21220;-68
2021/09/11 12:18:12;;;;;;;4.60;4.20;;;23.80;42.40;;;;;;4897855;28;20542;-67
2021/09/11 12:20:50;;;;;;;4.73;4.33;;;23.80;42.10;;;;;;4902028;28;21105;-71
2021/09/11 12:23:18;;;;;;;4.03;3.57;;;23.70;41.80;;;;;;4920140;28;20458;-70
2021/09/11 12:25:55;;;;;;;4.00;3.70;;;23.70;41.60;;;;;;4920933;28;20456;-71
2021/09/11 12:28:45;;;;;;;4.17;3.77;;;23.70;41.50;;;;;;4919923;28;20969;-71
2021/09/11 12:31:18;;;;;;;3.50;3.27;;;23.70;41.50;;;;;;4920261;28;20452;-67
2021/09/11 12:33:57;;;;;;;3.50;3.20;;;23.70;41.60;;;;;;4919526;28;20455;-67
2021/09/11 12:36:28;;;;;;;4.00;3.70;;;23.70;42.20;;;;;;4939687;28;20957;-68
2021/09/11 12:38:56;;;;;;;3.73;3.50;;;23.70;42.00;;;;;;4944754;28;20447;-67
2021/09/11 12:41:22;;;;;;;3.90;3.53;;;23.70;41.90;;;;;;4942667;28;20521;-67
2021/09/11 12:43:48;;;;;;;4.20;3.80;;;23.70;41.70;;;;;;4940563;28;20454;-68
2021/09/11 12:46:48;;;;;;;4.77;3.47;;;23.70;41.70;;;;;;4938614;28;20312;-67
2021/09/11 12:49:15;;;;;;;4.20;3.77;;;23.70;42.20;;;;;;4937165;28;20447;-67
2021/09/11 12:51:43;;;;;;;4.13;3.40;;;23.70;41.40;;;;;;4939734;28;20609;-67
2021/09/11 12:54:09;;;;;;;3.40;3.10;;;23.80;41.70;;;;;;4938768;28;20454;-67
2021/09/11 12:56:35;;;;;;;3.63;3.30;;;23.80;41.70;;;;;;4940255;28;20443;-67